Time;durP1;ratioP1;P1;durP2;ratioP2;P2;SDS_P1;SDS_P2;PMS_P1;PMS_P2;Temp;Humidity;BMP_temperature;BMP_pressure;BME280_temperature;BME280_humidity;BME280_pressure;Samples;Min_cycle;Max_cycle;Signal;HPM_P1;HPM_P2
2022/05/16 00:02:19;;;;;;;16.07;14.83;;;;;;;21.06;80.40;99773.94;5134956;27;20190;-66
2022/05/16 00:04:49;;;;;;;16.50;15.10;;;;;;;20.87;80.14;99775.38;5134697;27;20634;-63
2022/05/16 00:07:18;;;;;;;16.83;15.23;;;;;;;20.72;80.15;99780.63;5135223;27;20225;-63
2022/05/16 00:09:46;;;;;;;16.53;15.17;;;;;;;20.62;80.67;99779.69;5134234;27;20731;-63
2022/05/16 00:12:14;;;;;;;17.83;16.17;;;;;;;20.51;81.13;99786.88;5134844;27;20221;-64
2022/05/16 00:14:42;;;;;;;16.57;15.37;;;;;;;20.36;81.57;99790.22;5135013;27;20663;-64
2022/05/16 00:17:09;;;;;;;16.03;14.87;;;;;;;20.18;81.91;99787.81;5134137;27;20190;-64
2022/05/16 00:19:35;;;;;;;16.80;15.33;;;;;;;20.08;82.66;99794.91;5134101;27;20185;-65
2022/05/16 00:22:03;;;;;;;16.23;14.93;;;;;;;19.98;83.10;99794.81;5134081;27;20243;-64
2022/05/16 00:24:30;;;;;;;17.17;15.87;;;;;;;19.98;84.00;99792.91;5134009;27;20572;-64
2022/05/16 00:26:59;;;;;;;16.30;14.87;;;;;;;19.91;83.64;99796.84;5134882;27;20247;-65
2022/05/16 00:29:26;;;;;;;17.67;16.27;;;;;;;19.83;83.73;99791.88;5134217;27;20284;-66
2022/05/16 00:31:54;;;;;;;16.87;15.70;;;;;;;19.77;84.07;99796.38;5133936;27;20253;-64
2022/05/16 00:34:22;;;;;;;17.43;16.23;;;;;;;19.56;85.15;99793.66;5134431;27;20269;-66
2022/05/16 00:36:48;;;;;;;18.67;17.30;;;;;;;19.52;85.67;99797.91;5134565;27;20270;-66
2022/05/16 00:39:15;;;;;;;18.63;17.23;;;;;;;19.42;86.35;99789.66;5133793;27;20219;-65
2022/05/16 00:41:43;;;;;;;18.63;17.33;;;;;;;19.42;86.70;99787.78;5134071;27;20273;-65
2022/05/16 00:44:12;;;;;;;19.57;18.07;;;;;;;19.44;87.11;99792.94;5134027;27;20186;-64
2022/05/16 00:46:39;;;;;;;19.00;17.27;;;;;;;19.45;87.33;99792.66;5133679;27;20200;-64
2022/05/16 00:49:10;;;;;;;21.03;18.93;;;;;;;19.46;87.66;99796.19;5095062;27;1107142;-63
2022/05/16 00:51:44;;;;;;;19.50;17.87;;;;;;;19.43;87.84;99791.28;5135308;27;20455;-63
2022/05/16 00:54:16;;;;;;;19.87;18.30;;;;;;;19.42;87.80;99790.47;5134628;27;20181;-63
2022/05/16 00:56:43;;;;;;;21.07;19.17;;;;;;;19.40;88.75;99789.09;5134467;27;20206;-63
2022/05/16 00:59:12;;;;;;;18.27;16.90;;;;;;;19.41;89.00;99796.09;5134457;27;20720;-63
2022/05/16 01:07:10;;;;;;;21.07;19.23;;;;;;;19.36;87.95;99796.84;5134399;27;20208;-63
2022/05/16 01:09:36;;;;;;;19.33;17.60;;;;;;;19.36;90.14;99798.72;5134310;27;20265;-64
2022/05/16 01:12:04;;;;;;;20.00;18.20;;;;;;;19.30;88.27;99797.00;5134479;27;20216;-63
2022/05/16 01:14:44;;;;;;;19.60;18.00;;;;;;;19.22;88.58;99792.81;5134409;27;20190;-64
2022/05/16 01:17:11;;;;;;;20.70;18.97;;;;;;;19.18;88.73;99791.66;5134345;27;20208;-63
2022/05/16 01:19:38;;;;;;;19.73;18.03;;;;;;;19.18;88.67;99801.63;5134008;27;20222;-64
2022/05/16 01:22:10;;;;;;;21.33;19.67;;;;;;;19.15;88.71;99791.34;5133990;27;20659;-64
2022/05/16 01:24:39;;;;;;;19.67;17.97;;;;;;;19.13;88.69;99793.44;5134584;27;20185;-63
2022/05/16 01:27:06;;;;;;;20.10;18.40;;;;;;;19.10;89.33;99794.75;5134543;27;20233;-63
2022/05/16 01:29:32;;;;;;;20.87;19.17;;;;;;;19.10;89.45;99791.25;5133850;27;20731;-65
2022/05/16 01:31:59;;;;;;;20.17;18.23;;;;;;;19.09;89.82;99792.31;5134654;27;20193;-63
2022/05/16 01:34:26;;;;;;;19.07;17.60;;;;;;;19.08;90.28;99785.28;5134615;27;20229;-63
2022/05/16 01:36:52;;;;;;;19.13;17.53;;;;;;;19.08;90.25;99791.47;5133637;27;20224;-63
2022/05/16 01:39:19;;;;;;;20.50;18.67;;;;;;;19.08;90.15;99796.88;5133696;27;20683;-63
2022/05/16 01:41:47;;;;;;;19.30;17.63;;;;;;;19.07;91.28;99794.44;5133602;27;20688;-64
2022/05/16 01:44:14;;;;;;;19.90;17.90;;;;;;;19.13;88.97;99798.84;5133546;27;20242;-63
2022/05/16 01:46:41;;;;;;;18.83;17.33;;;;;;;19.15;88.30;99799.44;5134357;27;20200;-63
2022/05/16 01:49:10;;;;;;;19.80;18.07;;;;;;;19.20;89.17;99794.13;5133817;27;20698;-64
2022/05/16 01:51:37;;;;;;;19.13;17.47;;;;;;;19.15;88.67;99797.53;5134047;27;20190;-63
2022/05/16 01:54:04;;;;;;;18.83;17.03;;;;;;;19.14;88.93;99797.78;5133414;27;20247;-64
2022/05/16 01:56:31;;;;;;;18.30;16.90;;;;;;;19.18;89.45;99788.16;5134442;27;20244;-64
2022/05/16 01:58:59;;;;;;;18.83;17.43;;;;;;;19.24;88.76;99795.31;5133690;27;20217;-64
2022/05/16 02:01:26;;;;;;;19.50;17.60;;;;;;;19.34;87.85;99790.06;5133631;27;20193;-64
2022/05/16 02:03:53;;;;;;;19.87;17.87;;;;;;;19.46;87.28;99793.50;5134128;27;20221;-64
2022/05/16 02:06:20;;;;;;;17.60;16.37;;;;;;;19.54;87.79;99793.06;5133558;27;20197;-64
2022/05/16 02:08:48;;;;;;;18.27;16.63;;;;;;;19.55;86.52;99786.63;5133187;27;20243;-64
2022/05/16 02:11:16;;;;;;;20.00;17.97;;;;;;;19.63;85.80;99795.13;5133173;27;20655;-63
2022/05/16 02:13:45;;;;;;;18.00;16.77;;;;;;;19.67;85.29;99795.44;5133383;27;20613;-63
2022/05/16 02:16:14;;;;;;;17.13;15.73;;;;;;;19.72;84.18;99798.19;5133318;27;20233;-63
2022/05/16 02:18:40;;;;;;;15.83;14.53;;;;;;;19.68;84.45;99791.66;5133064;27;20190;-63
2022/05/16 02:26:35;;;;;;;18.63;16.93;;;;;;;19.44;85.23;99796.44;5133098;27;20688;-64
2022/05/16 02:29:02;;;;;;;18.67;17.23;;;;;;;19.37;86.52;99794.97;5134096;27;20189;-64
2022/05/16 02:31:30;;;;;;;20.30;18.57;;;;;;;19.27;85.75;99792.09;5132883;27;20190;-64
2022/05/16 02:33:56;;;;;;;19.30;17.70;;;;;;;19.11;87.23;99799.09;5133757;27;20198;-64
2022/05/16 02:36:23;;;;;;;20.77;18.17;;;;;;;19.03;86.92;99798.69;5133423;27;20621;-64
2022/05/16 02:38:50;;;;;;;19.83;17.67;;;;;;;18.95;86.50;99793.69;5132827;27;20680;-64
2022/05/16 02:41:17;;;;;;;18.80;16.90;;;;;;;18.79;87.14;99799.84;5133376;27;20189;-64
2022/05/16 02:43:44;;;;;;;17.47;16.07;;;;;;;18.79;87.60;99797.97;5133001;27;20197;-63
2022/05/16 02:46:10;;;;;;;18.47;16.93;;;;;;;18.79;86.88;99797.16;5132710;27;20258;-64
2022/05/16 02:48:39;;;;;;;18.23;16.67;;;;;;;18.80;86.57;99796.94;5133094;27;20702;-66
2022/05/16 02:51:05;;;;;;;16.77;15.37;;;;;;;18.81;86.97;99795.03;5132658;27;20239;-66
2022/05/16 02:53:32;;;;;;;17.30;15.73;;;;;;;18.86;85.99;99795.94;5133201;27;20192;-66
2022/05/16 02:55:58;;;;;;;16.37;14.97;;;;;;;18.90;84.33;99799.78;5132491;27;20241;-64
2022/05/16 02:58:25;;;;;;;22.03;14.93;;;;;;;18.83;85.44;99799.13;5132622;27;20677;-66
2022/05/16 03:00:52;;;;;;;15.20;13.93;;;;;;;18.79;85.32;99799.84;5132601;27;20666;-66
2022/05/16 03:03:19;;;;;;;15.43;14.27;;;;;;;18.82;84.32;99802.03;5132903;27;20190;-66
2022/05/16 03:05:47;;;;;;;16.50;15.20;;;;;;;18.90;84.31;99796.28;5132681;27;20250;-66
2022/05/16 03:08:13;;;;;;;15.03;13.83;;;;;;;18.92;84.34;99807.63;5133070;27;20261;-65
2022/05/16 03:10:40;;;;;;;15.20;13.87;;;;;;;18.90;83.80;99804.34;5132655;27;20194;-63
2022/05/16 03:13:07;;;;;;;14.27;13.37;;;;;;;18.93;83.76;99804.69;5132390;27;20292;-64
2022/05/16 03:15:34;;;;;;;14.53;13.23;;;;;;;19.00;83.59;99807.25;5132437;27;20189;-63
2022/05/16 03:18:00;;;;;;;14.30;13.20;;;;;;;19.08;82.92;99809.53;5132741;27;20616;-63
2022/05/16 03:20:27;;;;;;;14.53;13.40;;;;;;;19.05;82.65;99815.41;5132723;27;20193;-63
2022/05/16 03:22:55;;;;;;;14.00;12.63;;;;;;;19.03;81.52;99818.31;5132731;27;20258;-63
2022/05/16 03:25:23;;;;;;;14.57;12.47;;;;;;;18.97;82.31;99815.78;5132372;27;20190;-63
2022/05/16 03:27:50;;;;;;;13.77;12.00;;;;;;;18.93;83.04;99820.84;5133482;27;20246;-64
2022/05/16 03:30:17;;;;;;;13.60;12.13;;;;;;;19.01;81.12;99816.94;5133082;27;20195;-63
2022/05/16 03:32:43;;;;;;;12.97;11.93;;;;;;;19.02;81.87;99815.88;5135907;27;20193;-63
2022/05/16 03:35:10;;;;;;;13.03;11.83;;;;;;;19.11;80.49;99820.63;5136165;27;20328;-63
2022/05/16 03:37:37;;;;;;;12.83;11.53;;;;;;;19.19;79.58;99819.44;5135831;27;20740;-63
2022/05/16 03:42:51;;;;;;;11.83;10.93;;;;;;;19.17;78.08;99826.91;5136166;27;20185;-63
2022/05/16 03:45:17;;;;;;;13.87;11.20;;;;;;;19.14;77.82;99833.63;5136618;27;20247;-63
2022/05/16 03:47:44;;;;;;;13.10;11.83;;;;;;;19.21;78.58;99828.06;5135946;27;20262;-64
2022/05/16 03:50:12;;;;;;;12.43;11.20;;;;;;;19.26;77.98;99837.09;5136408;27;20618;-64
2022/05/16 03:52:39;;;;;;;12.27;11.27;;;;;;;19.33;77.03;99834.22;5136035;27;20246;-64
2022/05/16 03:55:09;;;;;;;12.40;11.27;;;;;;;19.46;78.36;99839.28;5136101;27;20196;-65
2022/05/16 03:57:36;;;;;;;12.57;11.40;;;;;;;19.92;75.95;99852.41;5136483;27;20221;-64
2022/05/16 04:00:03;;;;;;;11.07;9.93;;;;;;;20.42;73.72;99847.75;5135793;27;20229;-64
2022/05/16 04:02:30;;;;;;;11.33;10.20;;;;;;;21.04;71.18;99854.44;5135406;27;20270;-64
2022/05/16 04:04:57;;;;;;;31.03;10.67;;;;;;;21.57;68.14;99864.38;5135815;27;20190;-69
2022/05/16 04:07:23;;;;;;;10.63;8.77;;;;;;;22.26;65.97;99866.75;5135618;27;20250;-69
2022/05/16 04:09:50;;;;;;;8.63;7.60;;;;;;;23.18;65.25;99869.56;5135432;27;20720;-68
2022/05/16 04:12:18;;;;;;;670.07;419.20;;;;;;;24.16;62.05;99869.06;5135882;27;20190;-70
2022/05/16 04:14:45;;;;;;;66.47;38.93;;;;;;;25.07;57.84;99880.44;5135309;27;20186;-70
2022/05/16 04:17:12;;;;;;;53.80;33.67;;;;;;;25.88;55.71;99881.47;5136048;27;20224;-68
2022/05/16 04:19:39;;;;;;;78.17;52.30;;;;;;;26.47;51.49;99881.97;5135244;27;20225;-71
2022/05/16 04:22:05;;;;;;;151.47;122.37;;;;;;;27.07;52.35;99892.16;5129734;27;20186;-70
2022/05/16 04:24:32;;;;;;;14.70;13.10;;;;;;;27.51;46.01;99919.88;5120303;27;20195;-70
2022/05/16 04:26:58;;;;;;;9.97;8.97;;;;;;;27.58;45.65;99898.50;5114493;28;20247;-71
2022/05/16 04:29:27;;;;;;;11.60;8.97;;;;;;;27.25;46.45;99905.00;5114569;28;20732;-73
2022/05/16 04:31:53;;;;;;;10.97;8.83;;;;;;;27.29;45.94;99904.13;5114753;28;20191;-70
2022/05/16 04:34:21;;;;;;;9.67;8.63;;;;;;;27.33;47.23;99902.44;5115539;28;20190;-68
2022/05/16 04:36:47;;;;;;;9.47;7.43;;;;;;;27.57;46.43;99902.34;5114516;28;20706;-69
2022/05/16 04:39:14;;;;;;;12.03;7.70;;;;;;;27.93;44.26;99908.88;5114574;28;20239;-71
2022/05/16 04:44:27;;;;;;;14.30;6.97;;;;;;;28.90;40.75;99899.34;5113699;28;20547;-70
2022/05/16 04:46:53;;;;;;;9.73;7.30;;;;;;;29.41;40.46;99899.06;5114514;28;20231;-72
2022/05/16 04:49:20;;;;;;;8.23;6.47;;;;;;;30.01;39.99;99895.66;5114026;28;20226;-72
2022/05/16 04:51:47;;;;;;;35.07;7.90;;;;;;;30.43;37.73;99895.13;5114169;28;20255;-72
2022/05/16 04:54:13;;;;;;;19.57;6.33;;;;;;;30.86;38.08;99887.84;5113846;28;20191;-70
2022/05/16 04:56:40;;;;;;;13.13;5.93;;;;;;;31.10;36.00;99885.47;5114171;28;20286;-71
2022/05/16 04:59:07;;;;;;;7.33;5.47;;;;;;;31.56;35.26;99896.66;5114058;28;20264;-70
2022/05/16 05:01:35;;;;;;;6.33;5.80;;;;;;;31.82;33.75;99894.75;5114899;28;20620;-71
2022/05/16 05:04:02;;;;;;;12.60;5.93;;;;;;;32.01;34.76;99889.66;5114121;28;20230;-72
2022/05/16 05:06:28;;;;;;;7.13;5.77;;;;;;;32.37;32.96;99895.56;5121047;27;20674;-71
2022/05/16 05:08:55;;;;;;;6.00;5.53;;;;;;;32.57;33.06;99896.78;5120418;27;20198;-72
2022/05/16 05:14:35;;;;;;;25.00;6.93;;;;;;;33.20;31.87;99891.88;5076095;28;20192;-72
2022/05/16 05:17:06;;;;;;;13.00;5.20;;;;;;;33.42;31.40;99887.19;5080698;28;20687;-74
2022/05/16 05:19:33;;;;;;;7.67;5.00;;;;;;;33.27;32.07;99892.16;5087979;28;20190;-73
2022/05/16 05:22:00;;;;;;;9.13;5.63;;;;;;;33.46;31.46;99893.66;5112248;28;20255;-72
2022/05/16 05:24:27;;;;;;;6.80;5.30;;;;;;;33.57;31.33;99894.88;5119503;27;20205;-71
2022/05/16 05:26:54;;;;;;;12.57;6.47;;;;;;;33.52;31.08;99892.31;5133543;27;20618;-70
2022/05/16 05:29:22;;;;;;;9.60;4.67;;;;;;;33.51;31.98;99901.75;5133861;27;20254;-70
2022/05/16 05:31:50;;;;;;;12.40;5.30;;;;;;;33.02;33.13;99895.09;5127746;27;21737;-73
2022/05/16 05:34:19;;;;;;;5.87;5.30;;;;;;;32.80;33.04;99898.97;5122083;27;20251;-70
2022/05/16 05:36:46;;;;;;;10.37;5.43;;;;;;;33.39;32.15;99904.44;5121380;27;20215;-72
2022/05/16 05:39:16;;;;;;;5.97;5.40;;;;;;;33.75;31.38;99901.81;5130322;27;20619;-72
2022/05/16 05:41:43;;;;;;;5.70;5.30;;;;;;;33.51;31.79;99901.75;5133206;27;20277;-72
2022/05/16 05:44:10;;;;;;;5.70;4.70;;;;;;;33.01;32.91;99894.31;5118834;27;20181;-72
2022/05/16 05:46:39;;;;;;;5.30;4.90;;;;;;;33.02;33.08;99890.41;5133564;27;20196;-74
2022/05/16 05:49:06;;;;;;;5.47;5.07;;;;;;;33.19;32.55;99900.47;5126473;27;20222;-77
2022/05/16 05:51:35;;;;;;;7.57;5.73;;;;;;;33.13;32.74;99902.66;5112355;28;20725;-75
2022/05/16 05:54:01;;;;;;;5.73;5.37;;;;;;;33.19;31.33;99897.72;5112636;27;20244;-75
2022/05/16 05:56:28;;;;;;;10.20;5.43;;;;;;;33.04;32.84;99898.34;5133364;27;20190;-78
2022/05/16 05:58:55;;;;;;;12.33;5.03;;;;;;;32.99;33.32;99896.56;5133412;27;20225;-81
2022/05/16 06:01:22;;;;;;;8.83;5.13;;;;;;;32.96;32.92;99904.69;5133044;27;20251;-77
2022/05/16 06:03:49;;;;;;;7.90;5.10;;;;;;;32.99;32.75;99906.78;5133136;27;20647;-79
2022/05/16 06:06:16;;;;;;;5.93;4.60;;;;;;;32.98;33.43;99911.47;5125797;27;20250;-72
2022/05/16 06:08:44;;;;;;;19.50;4.77;;;;;;;32.60;33.92;99910.69;5133103;27;20729;-71
2022/05/16 06:11:11;;;;;;;9.07;5.10;;;;;;;32.51;33.36;99906.38;5115693;27;20276;-72
2022/05/16 06:13:38;;;;;;;5.83;4.63;;;;;;;32.47;33.72;99906.19;5111838;28;20827;-70
2022/05/16 06:16:05;;;;;;;5.83;4.40;;;;;;;32.46;33.93;99904.59;5113287;27;20191;-72
2022/05/16 06:18:32;;;;;;;5.70;5.30;;;;;;;32.33;33.87;99910.28;5133485;27;20214;-71
2022/05/16 06:20:59;;;;;;;8.83;5.33;;;;;;;32.26;33.89;99908.03;5133230;27;20190;-72
2022/05/16 06:23:26;;;;;;;9.47;5.27;;;;;;;32.42;34.04;99913.84;5120529;27;20191;-71
2022/05/16 06:25:54;;;;;;;7.23;5.20;;;;;;;32.38;34.06;99908.19;5111380;28;20733;-72
2022/05/16 06:28:23;;;;;;;5.30;5.00;;;;;;;32.38;33.97;99910.94;5110553;28;20198;-71
2022/05/16 06:30:52;;;;;;;10.57;5.57;;;;;;;32.41;33.22;99912.22;5111886;28;20251;-72
2022/05/16 06:33:20;;;;;;;8.77;6.07;;;;;;;32.41;33.04;99913.03;5110776;28;20237;-74
2022/05/16 06:35:48;;;;;;;11.37;5.77;;;;;;;32.17;34.17;99907.25;5111826;28;20222;-74
2022/05/16 06:38:17;;;;;;;5.77;5.17;;;;;;;32.54;33.49;99902.97;5111657;28;20222;-72
2022/05/16 06:40:46;;;;;;;8.07;5.97;;;;;;;32.69;33.93;99910.63;5119193;28;20243;-72
2022/05/16 06:43:16;;;;;;;7.23;6.60;;;;;;;32.75;33.77;99901.84;5132388;27;20277;-72
2022/05/16 06:45:43;;;;;;;6.00;5.40;;;;;;;32.68;33.56;99906.28;5111531;27;20248;-71
2022/05/16 06:48:10;;;;;;;7.67;5.13;;;;;;;32.78;33.93;99901.19;5111428;28;20219;-71
2022/05/16 06:50:38;;;;;;;5.67;5.20;;;;;;;32.83;33.43;99894.75;5111973;28;20186;-71
2022/05/16 06:53:06;;;;;;;5.43;4.90;;;;;;;32.95;33.40;99892.06;5111826;28;20259;-71
2022/05/16 06:55:33;;;;;;;6.33;5.07;;;;;;;32.83;33.89;99901.03;5112140;28;20248;-71
2022/05/16 06:58:00;;;;;;;6.70;6.30;;;;;;;32.96;33.23;99899.19;5111924;28;20669;-71
2022/05/16 07:00:28;;;;;;;7.37;4.77;;;;;;;32.88;33.50;99906.38;5112070;28;20190;-71
2022/05/16 07:02:54;;;;;;;6.70;5.50;;;;;;;33.03;33.20;99897.50;5112683;28;20187;-71
2022/05/16 07:05:21;;;;;;;6.17;5.30;;;;;;;33.05;33.64;99899.94;5112485;28;20190;-71
2022/05/16 07:07:48;;;;;;;5.23;4.97;;;;;;;33.08;33.13;99900.06;5115359;28;20718;-71
2022/05/16 07:10:15;;;;;;;11.82;5.82;;;;;;;32.95;34.04;99895.63;5116202;28;20186;-71
2022/05/16 07:12:42;;;;;;;5.90;5.30;;;;;;;32.86;34.04;99897.63;5115816;28;20194;-71
2022/05/16 07:15:09;;;;;;;6.03;5.73;;;;;;;32.69;33.86;99897.69;5126501;27;20198;-71
2022/05/16 07:17:37;;;;;;;5.83;5.33;;;;;;;32.47;33.67;99897.94;5119909;27;20209;-71
2022/05/16 07:20:05;;;;;;;8.07;6.10;;;;;;;32.48;34.33;99902.34;5122151;27;20194;-71
2022/05/16 07:22:32;;;;;;;5.23;4.93;;;;;;;32.48;34.23;99896.81;5118515;27;20248;-71
2022/05/16 07:24:59;;;;;;;7.20;5.57;;;;;;;32.70;34.07;99899.31;5115544;28;20679;-70
2022/05/16 07:30:12;;;;;;;7.07;5.23;;;;;;;32.85;33.97;99890.50;5115913;28;20200;-69
2022/05/16 07:32:42;;;;;;;49.47;9.57;;;;;;;32.96;34.21;99891.72;5115782;28;20191;-70
2022/05/16 07:35:12;;;;;;;11.73;6.07;;;;;;;32.61;34.73;99895.78;5115390;28;20247;-70
2022/05/16 07:37:39;;;;;;;6.43;5.83;;;;;;;32.72;34.44;99893.47;5115232;28;20219;-71
2022/05/16 07:40:08;;;;;;;6.60;6.03;;;;;;;32.75;34.49;99893.59;5117369;27;20239;-70
2022/05/16 07:42:35;;;;;;;6.60;5.93;;;;;;;32.96;34.15;99894.47;5136206;27;20567;-70
2022/05/16 07:45:02;;;;;;;6.30;5.80;;;;;;;33.20;33.30;99886.38;5121037;27;20191;-70
2022/05/16 07:47:30;;;;;;;6.37;5.80;;;;;;;33.35;33.29;99884.22;5115594;28;20264;-69
2022/05/16 07:49:58;;;;;;;5.82;5.47;;;;;;;33.33;33.13;99883.72;5115419;28;20226;-69
2022/05/16 07:52:26;;;;;;;6.18;5.75;;;;;;;33.48;32.89;99881.19;5116281;28;20247;-69
2022/05/16 07:54:54;;;;;;;5.25;4.95;;;;;;;33.62;32.66;99875.34;5115368;28;20199;-69
2022/05/16 07:57:21;;;;;;;5.38;4.97;;;;;;;33.45;32.99;99881.03;5115027;28;20187;-71
2022/05/16 07:59:48;;;;;;;6.43;5.93;;;;;;;33.54;31.95;99874.31;5115055;28;20724;-70
2022/05/16 08:02:15;;;;;;;9.23;5.78;;;;;;;33.45;32.17;99867.25;5114814;28;20664;-71
2022/05/16 08:04:42;;;;;;;8.45;6.20;;;;;;;33.37;32.42;99868.13;5115131;28;20190;-68
2022/05/16 08:07:11;;;;;;;6.73;6.33;;;;;;;30.96;36.71;99864.78;5115447;28;20195;-71
2022/05/16 08:12:25;;;;;;;7.50;6.60;;;;;;;31.15;35.96;99862.56;5112071;27;20726;-68
2022/05/16 08:14:52;;;;;;;9.83;5.93;;;;;;;31.44;36.38;99855.28;5135729;27;20194;-69
2022/05/16 08:17:19;;;;;;;5.87;5.53;;;;;;;31.44;36.17;99860.78;5123411;27;20760;-67
2022/05/16 08:19:46;;;;;;;6.77;5.67;;;;;;;31.58;36.81;99853.19;5114487;28;20195;-69
2022/05/16 08:22:15;;;;;;;6.97;6.40;;;;;;;31.77;36.09;99853.66;5114892;28;20191;-69
2022/05/16 08:24:42;;;;;;;10.33;6.13;;;;;;;31.92;35.58;99852.34;5115052;28;20199;-70
2022/05/16 08:27:09;;;;;;;9.43;6.07;;;;;;;32.07;35.15;99847.13;5115337;28;20198;-68
2022/05/16 08:29:35;;;;;;;9.13;5.97;;;;;;;32.10;34.72;99854.69;5125342;27;20198;-67
2022/05/16 08:32:04;;;;;;;6.00;5.40;;;;;;;32.10;33.68;99851.94;5134710;27;20565;-66
2022/05/16 08:34:30;;;;;;;5.47;5.17;;;;;;;31.95;34.09;99854.44;5134857;27;20186;-67
2022/05/16 08:39:55;;;;;;;6.20;5.53;;;;;;;32.25;34.22;99851.41;5092912;27;20750;-67
2022/05/16 08:42:28;;;;;;;7.77;5.57;;;;;;;32.44;34.29;99846.34;5114301;28;20701;-67
2022/05/16 08:45:00;;;;;;;5.60;4.97;;;;;;;32.63;32.46;99848.69;5128079;27;20190;-66
2022/05/16 08:47:45;;;;;;;5.00;4.67;;;;;;;32.80;32.50;99845.81;5134656;27;20186;-67
2022/05/16 08:50:15;;;;;;;5.97;5.20;;;;;;;32.80;32.69;99838.41;5134560;27;20715;-66
2022/05/16 08:52:46;;;;;;;5.33;5.03;;;;;;;32.92;32.69;99841.22;5135640;27;20250;-66
2022/05/16 08:55:28;;;;;;;5.63;4.97;;;;;;;33.01;32.82;99846.69;5134425;27;20186;-67
2022/05/16 08:58:00;;;;;;;13.73;5.13;;;;;;;33.03;31.34;99845.19;5134828;27;20206;-65
2022/05/16 09:00:33;;;;;;;6.82;4.63;;;;;;;32.84;31.75;99844.88;5134634;27;20186;-66
2022/05/16 09:03:05;;;;;;;4.88;4.35;;;;;;;32.96;31.54;99842.16;5135106;27;20198;-65
2022/05/16 09:05:36;;;;;;;5.00;4.53;;;;;;;32.94;30.67;99843.63;5134214;27;20716;-65
2022/05/16 09:08:06;;;;;;;5.70;4.53;;;;;;;33.15;33.28;99834.25;5134767;27;20194;-66
2022/05/16 09:10:51;;;;;;;4.88;4.30;;;;;;;33.42;33.67;99835.66;5134158;27;20246;-68
2022/05/16 09:13:29;;;;;;;6.40;4.55;;;;;;;33.48;30.79;99825.25;5134666;27;20190;-68
2022/05/16 09:16:06;;;;;;;4.75;4.35;;;;;;;33.59;31.21;99826.44;5134286;27;20182;-67
2022/05/16 09:18:43;;;;;;;8.23;4.53;;;;;;;33.76;30.71;99831.78;5128001;27;20262;-67
2022/05/16 09:21:14;;;;;;;4.97;3.90;;;;;;;33.59;30.08;99827.25;5133794;27;20186;-66
2022/05/16 09:23:50;;;;;;;8.52;4.18;;;;;;;33.66;29.18;99823.94;5134143;27;20182;-66
2022/05/16 09:26:28;;;;;;;5.32;4.25;;;;;;;33.75;28.89;99813.59;5134203;27;20182;-67
2022/05/16 09:28:59;;;;;;;29.40;5.00;;;;;;;33.84;29.18;99811.63;5133990;27;20262;-66
2022/05/16 09:31:28;;;;;;;6.18;3.80;;;;;;;33.77;29.26;99816.84;5134007;27;20242;-66
2022/05/16 09:33:57;;;;;;;3.30;3.10;;;;;;;33.24;27.91;99814.91;5133821;27;20247;-67
2022/05/16 09:36:27;;;;;;;3.88;3.55;;;;;;;32.67;28.52;99800.88;5133457;27;20194;-67
2022/05/16 09:38:54;;;;;;;9.25;4.30;;;;;;;32.89;28.75;99803.38;5133740;27;20281;-67
2022/05/16 09:41:26;;;;;;;6.60;3.83;;;;;;;33.18;28.23;99800.53;5133877;27;20193;-67
2022/05/16 09:43:58;;;;;;;10.75;4.25;;;;;;;33.25;28.57;99806.31;5128509;27;20247;-67
2022/05/16 09:46:33;;;;;;;3.97;3.65;;;;;;;33.44;27.61;99796.78;5112986;28;20779;-67
2022/05/16 09:49:11;;;;;;;3.30;3.00;;;;;;;33.16;26.42;99802.81;5113311;28;20230;-67
2022/05/16 09:51:48;;;;;;;3.35;3.15;;;;;;;33.29;26.41;99792.66;5112718;28;20231;-67
2022/05/16 09:54:22;;;;;;;3.40;3.17;;;;;;;33.39;27.04;99794.22;5113278;28;20248;-67
2022/05/16 09:57:04;;;;;;;3.50;3.20;;;;;;;33.71;26.97;99779.63;5113250;28;20189;-66
2022/05/16 09:59:40;;;;;;;3.53;2.78;;;;;;;33.78;26.28;99774.34;5112562;28;20691;-67
2022/05/16 10:02:15;;;;;;;6.25;2.15;;;;;;;33.96;25.04;99778.56;5112534;28;20732;-66
2022/05/16 10:04:46;;;;;;;2.38;2.17;;;;;;;34.21;25.92;99769.91;5112930;28;20183;-67
2022/05/16 10:07:13;;;;;;;4.25;2.47;;;;;;;34.11;23.63;99775.09;5112612;28;20208;-67
2022/05/16 10:09:45;;;;;;;3.88;2.38;;;;;;;33.79;23.25;99759.41;5113672;28;20198;-66
2022/05/16 10:12:15;;;;;;;2.80;2.60;;;;;;;33.40;24.01;99757.25;5112814;28;20190;-66
2022/05/16 10:14:42;;;;;;;3.97;2.78;;;;;;;33.77;24.40;99756.19;5112990;28;20183;-66
2022/05/16 10:17:17;;;;;;;6.03;2.83;;;;;;;33.99;23.71;99755.78;5122524;27;20218;-66
2022/05/16 10:19:44;;;;;;;3.75;2.08;;;;;;;33.18;23.28;99750.16;5139400;27;20276;-68
2022/05/16 10:22:13;;;;;;;4.18;2.33;;;;;;;33.12;23.49;99746.78;5131465;27;20651;-67
2022/05/16 10:24:44;;;;;;;2.95;2.80;;;;;;;33.41;28.45;99728.56;5132790;27;20670;-67
2022/05/16 10:27:24;;;;;;;10.40;3.70;;;;;;;33.30;24.03;99734.47;5133148;27;20223;-63
2022/05/16 10:29:53;;;;;;;5.85;2.72;;;;;;;33.16;22.58;99733.97;5133367;27;20311;-62
2022/05/16 10:35:21;;;;;;;5.83;4.17;;;;;;;33.19;23.25;99714.00;5133109;28;20185;-64
2022/05/16 10:37:51;;;;;;;8.48;3.67;;;;;;;33.33;23.52;99713.75;5132906;27;20194;-64
2022/05/16 10:40:28;;;;;;;3.83;3.50;;;;;;;33.51;23.32;99714.38;5129863;27;20194;-63
2022/05/16 10:43:09;;;;;;;3.20;2.92;;;;;;;33.56;23.40;99714.94;5116662;28;20285;-64
2022/05/16 10:45:37;;;;;;;2.88;2.65;;;;;;;33.73;23.67;99702.91;5135876;27;20661;-64
2022/05/16 10:48:15;;;;;;;2.63;2.53;;;;;;;33.70;23.66;99700.81;5136533;27;20266;-66
2022/05/16 10:50:46;;;;;;;3.70;2.42;;;;;;;33.72;22.84;99695.78;5136878;27;20558;-63
2022/05/16 10:53:18;;;;;;;2.88;2.65;;;;;;;33.99;22.50;99697.88;5136803;27;20182;-64
2022/05/16 10:55:54;;;;;;;2.90;2.70;;;;;;;34.12;22.90;99691.22;5136511;27;20182;-64
2022/05/16 10:58:32;;;;;;;7.00;3.08;;;;;;;34.25;23.07;99685.31;5136564;27;20266;-63
2022/05/16 11:01:08;;;;;;;7.25;3.50;;;;;;;33.83;23.65;99683.16;5137265;27;20266;-61
2022/05/16 11:04:07;;;;;;;3.70;2.60;;;;;;;33.87;23.25;99673.06;5136647;27;20193;-62
2022/05/16 11:07:02;;;;;;;3.28;2.80;;;;;;;33.38;23.70;99668.63;5137527;27;20285;-63
2022/05/16 11:09:39;;;;;;;2.72;2.53;;;;;;;33.15;23.22;99665.44;5137633;27;20270;-67
2022/05/16 11:12:13;;;;;;;3.05;2.80;;;;;;;33.16;23.14;99659.59;5136818;27;20186;-66
2022/05/16 11:14:48;;;;;;;3.55;3.25;;;;;;;33.19;23.54;99652.59;5136478;27;20182;-66
2022/05/16 11:17:23;;;;;;;3.15;2.45;;;;;;;33.48;23.29;99643.41;5126380;27;20235;-66
2022/05/16 11:19:57;;;;;;;4.70;2.88;;;;;;;33.64;23.25;99652.59;5115588;28;20654;-67
2022/05/16 11:22:30;;;;;;;3.05;2.50;;;;;;;33.60;23.18;99651.69;5116407;28;20243;-66
2022/05/16 11:25:06;;;;;;;2.90;2.50;;;;;;;33.61;22.78;99645.00;5116932;28;20255;-65
2022/05/16 11:27:38;;;;;;;5.43;2.75;;;;;;;33.75;23.06;99642.72;5115714;28;20728;-64
2022/05/16 11:30:13;;;;;;;3.83;2.75;;;;;;;33.77;23.58;99640.44;5115783;28;20627;-64
2022/05/16 11:33:00;;;;;;;3.22;2.92;;;;;;;33.77;23.61;99635.72;5115563;28;20183;-65
2022/05/16 11:35:36;;;;;;;3.00;2.80;;;;;;;33.69;23.76;99633.91;5115576;28;20659;-65
2022/05/16 11:38:15;;;;;;;4.07;2.90;;;;;;;33.77;23.03;99623.88;5115849;28;20182;-64
2022/05/16 11:40:51;;;;;;;3.75;2.90;;;;;;;33.63;21.83;99617.94;5115446;28;20562;-64
2022/05/16 11:43:25;;;;;;;3.63;2.60;;;;;;;33.63;21.99;99618.72;5115101;28;20639;-66
2022/05/16 11:46:27;;;;;;;2.55;2.30;;;;;;;33.26;22.51;99609.59;5116401;28;20270;-66
2022/05/16 11:49:08;;;;;;;3.35;2.10;;;;;;;32.99;22.22;99610.22;5116235;28;20225;-65
2022/05/16 11:51:48;;;;;;;6.23;2.60;;;;;;;32.72;23.75;99596.25;5115994;28;20187;-69
2022/05/16 11:54:18;;;;;;;7.45;2.95;;;;;;;32.55;22.25;99597.22;5115405;28;20198;-70
2022/05/16 12:02:42;;;;;;;6.70;2.90;;;;;;;32.89;22.41;99576.84;5115555;28;20197;-68
2022/05/16 12:05:12;;;;;;;3.73;2.43;;;;;;;33.01;21.81;99587.88;5115374;28;20564;-69
2022/05/16 12:07:42;;;;;;;2.20;2.10;;;;;;;33.07;20.78;99592.81;5115091;28;20190;-68
2022/05/16 12:10:23;;;;;;;2.75;2.53;;;;;;;32.92;23.57;99581.66;5125269;27;20193;-68
2022/05/16 12:13:22;;;;;;;2.70;2.50;;;;;;;32.86;21.71;99583.00;5135880;27;20182;-69
2022/05/16 12:16:09;;;;;;;4.82;2.83;;;;;;;32.94;22.28;99562.84;5135972;27;20209;-68